Tuesday, April 24, 2018, 8:54 PM EDT
Back to Local

KMLT, Millinocket Municipal Airport

Location: Millinocket, ME, United States Lat: 45.65
Local Time: 8:54 PM EDT ( 0:54 GMT) Lon: -68.7
Time Zone: US/Eastern Elev: 406 ft

Show me the last for .
Show Decoded

2018-04-24 19:53 METAR KMLT 242353Z AUTO 18005KT 10SM CLR 15/M02 A3014 RMK AO2 SLP211 T01501022
                 10222 20150 53003 =
2018-04-24 18:53 METAR KMLT 242253Z AUTO VRB04KT 10SM CLR 18/M01 A3012 RMK AO2 SLP207 T01781006 =
2018-04-24 17:53 METAR KMLT 242153Z AUTO VRB04KT 10SM CLR 21/M03 A3012 RMK AO2 SLP206 T02061028 =
2018-04-24 16:53 METAR KMLT 242053Z AUTO VRB05KT 10SM CLR 22/M02 A3013 RMK AO2 SLP208 T02171017
                 56019 =
2018-04-24 15:53 METAR KMLT 241953Z AUTO VRB06KT 10SM CLR 22/M01 A3014 RMK AO2 SLP211 T02221011 =
2018-04-24 14:53 METAR KMLT 241853Z AUTO VRB05KT 10SM CLR 21/M02 A3015 RMK AO2 SLP217 T02111017 =
2018-04-24 13:53 METAR KMLT 241753Z AUTO VRB06KT 10SM CLR 21/M02 A3018 RMK AO2 SLP227 T02111017
                 10217 20044 56026 =
2018-04-24 12:53 METAR KMLT 241653Z AUTO VRB05KT 10SM CLR 20/M03 A3020 RMK AO2 SLP234 T02001028 =
2018-04-24 11:53 METAR KMLT 241553Z AUTO 10SM CLR 19/M04 A3024 RMK AO2 SLP246 T01891039 =
2018-04-24 10:53 METAR KMLT 241453Z AUTO 00000KT 10SM CLR 17/M04 A3026 RMK AO2 SLP254 T01671044
                 56012 =
2018-04-24 09:53 METAR KMLT 241353Z AUTO 12004KT 10SM CLR 14/M03 A3027 RMK AO2 SLP258 T01391033 =
2018-04-24 08:53 METAR KMLT 241253Z AUTO 00000KT 10SM CLR 09/M05 A3029 RMK AO2 SLP263 T00941050 =
2018-04-24 07:53 METAR KMLT 241153Z AUTO 00000KT 10SM CLR 04/M04 A3030 RMK AO2 SLP267 T00441044
                 10044 21017 50001 =
2018-04-24 06:53 METAR KMLT 241053Z AUTO 00000KT 10SM CLR 00/M04 A3030 RMK AO2 SLP269 T00001039 =
2018-04-24 05:53 METAR KMLT 240953Z AUTO 00000KT 10SM CLR M01/M05 A3030 RMK AO2 SLP266 T10111050
                 =
2018-04-24 04:53 METAR KMLT 240853Z AUTO 00000KT 10SM CLR M02/M05 A3029 RMK AO2 SLP266 T10171050
                 58002 =
2018-04-24 03:53 METAR KMLT 240753Z AUTO 00000KT 10SM CLR M01/M05 A3030 RMK AO2 SLP268 T10111050
                 =
2018-04-24 02:53 METAR KMLT 240653Z AUTO 00000KT 10SM CLR 01/M05 A3030 RMK AO2 SLP267 T00061050 =
2018-04-24 01:53 METAR KMLT 240553Z AUTO 09003KT 10SM CLR 01/M04 A3030 RMK AO2 SLP267 T00111044
                 10089 20006 58009 =
2018-04-24 00:53 METAR KMLT 240453Z AUTO 11003KT 10SM CLR 03/M04 A3031 RMK AO2 SLP273 T00281044
                 401671044 =
2018-04-23 23:53 METAR KMLT 240353Z AUTO 11003KT 10SM CLR 03/M05 A3032 RMK AO2 SLP276 T00281050 =
2018-04-23 22:53 METAR KMLT 240253Z AUTO 11003KT 10SM CLR 03/M06 A3033 RMK AO2 SLP277 T00331056
                 50005 =
2018-04-23 21:53 METAR KMLT 240153Z AUTO 00000KT 10SM CLR 03/M05 A3033 RMK AO2 SLP278 T00331050 =

Support USWX by starting your Amazon purchase here.